Martine P — 2FIL4 — position and weather

sailwx.info

Track history (hours):
 
Tides and Currents Weather Stations Pressure Air Temp Water Temp Dewpoint Dewpoint Depression Visibility Wind Speed Wind Dir Waves Ship Positions

Martine P

Last reported at 2017-May-26 12:58 UTC. Time now 2017-May-26 19:04 UTC.
Position N 54°07' W 003°50'.

Length 27 m; draft 3 m.

Type: Tug. MMSI: 235091541.

Date/timePositionNaut miles runAvg speedWind from/ knotsBaromVisibWave heightAir tempDewpointWater temp
2017-May-26 12:58N 54°07' W 003°50'0 0.0
2017-May-25 06:26N 54°07' W 003°50'0 0.0
2017-May-25 05:53N 54°07' W 003°50'3 0.3
2017-May-24 18:53N 54°05' W 003°46'0 0.3
2017-May-24 18:04N 54°05' W 003°46'0 0.0
2017-May-24 17:45N 54°05' W 003°46'1 1.2
2017-May-24 17:12N 54°06' W 003°46'0 0.2
2017-May-24 17:00N 54°06' W 003°46'2 0.3
2017-May-24 12:34N 54°07' W 003°49'2 0.2
2017-May-24 04:06N 54°06' W 003°46'0 0.2
2017-May-24 04:00N 54°06' W 003°46'  
2017-May-19 20:39N 54°08' W 003°48'2 1.8
2017-May-19 19:21N 54°06' W 003°45'0 0.0
2017-May-19 19:00N 54°06' W 003°45'0 0.0
2017-May-19 17:24N 54°06' W 003°45'0 0.0
2017-May-19 15:43N 54°06' W 003°45'0 0.0
2017-May-19 14:12N 54°06' W 003°45'  
2017-May-17 01:25N 54°24' W 004°14'4 9.1
2017-May-17 00:59N 54°26' W 004°20'4 7.5
2017-May-17 00:29N 54°28' W 004°25'4 7.3
2017-May-16 23:59N 54°30' W 004°30'4 7.7
2017-May-16 23:30N 54°31' W 004°36'4 7.6
2017-May-16 23:00N 54°33' W 004°43'4 7.6
2017-May-16 22:30N 54°34' W 004°49'4 7.1
2017-May-16 22:00N 54°35' W 004°55'3 6.1
2017-May-16 21:30N 54°36' W 004°59'2 4.6
2017-May-16 21:00N 54°37' W 005°03'2 3.7
2017-May-16 20:30N 54°38' W 005°06'2 3.8
2017-May-16 20:00N 54°39' W 005°09'2 3.8
2017-May-16 19:30N 54°39' W 005°12'2 4.2
2017-May-16 19:00N 54°40' W 005°15'2 5.0
2017-May-16 18:30N 54°41' W 005°19'3 5.1
2017-May-16 18:00N 54°42' W 005°24'2 4.9
2017-May-16 17:30N 54°43' W 005°27'2 4.4
2017-May-16 17:00N 54°43' W 005°31'2 4.2
2017-May-16 16:30N 54°43' W 005°34'2 4.3
2017-May-16 16:00N 54°42' W 005°38'0 1.0
2017-May-16 15:30N 54°42' W 005°39'0 0.1
2017-May-16 15:00N 54°42' W 005°39'0 0.0
2017-May-16 14:00N 54°42' W 005°39'4 7.0
2017-May-16 13:30N 54°41' W 005°45'4 7.8
2017-May-16 13:00N 54°40' W 005°51'  
Track history (hours):
 
Tides and Currents Weather Stations Pressure Air Temp Water Temp Dewpoint Dewpoint Depression Visibility Wind Speed Wind Dir Waves Ship Positions

Martine P

Last reported at 2017-May-26 12:58 UTC. Time now 2017-May-26 19:04 UTC.
Position N 54°07' W 003°50'.

Length 27 m; draft 3 m.

Type: Tug. MMSI: 235091541.

Date/timePositionNaut miles runAvg speedWind from/ knotsBaromVisibWave heightAir tempDewpointWater temp
2017-May-26 12:58N 54°07' W 003°50'0 0.0
2017-May-25 06:26N 54°07' W 003°50'0 0.0
2017-May-25 05:53N 54°07' W 003°50'3 0.3
2017-May-24 18:53N 54°05' W 003°46'0 0.3
2017-May-24 18:04N 54°05' W 003°46'0 0.0
2017-May-24 17:45N 54°05' W 003°46'1 1.2
2017-May-24 17:12N 54°06' W 003°46'0 0.2
2017-May-24 17:00N 54°06' W 003°46'2 0.3
2017-May-24 12:34N 54°07' W 003°49'2 0.2
2017-May-24 04:06N 54°06' W 003°46'0 0.2
2017-May-24 04:00N 54°06' W 003°46'  
2017-May-19 20:39N 54°08' W 003°48'2 1.8
2017-May-19 19:21N 54°06' W 003°45'0 0.0
2017-May-19 19:00N 54°06' W 003°45'0 0.0
2017-May-19 17:24N 54°06' W 003°45'0 0.0
2017-May-19 15:43N 54°06' W 003°45'0 0.0
2017-May-19 14:12N 54°06' W 003°45'  
2017-May-17 01:25N 54°24' W 004°14'4 9.1
2017-May-17 00:59N 54°26' W 004°20'4 7.5
2017-May-17 00:29N 54°28' W 004°25'4 7.3
2017-May-16 23:59N 54°30' W 004°30'4 7.7
2017-May-16 23:30N 54°31' W 004°36'4 7.6
2017-May-16 23:00N 54°33' W 004°43'4 7.6
2017-May-16 22:30N 54°34' W 004°49'4 7.1
2017-May-16 22:00N 54°35' W 004°55'3 6.1
2017-May-16 21:30N 54°36' W 004°59'2 4.6
2017-May-16 21:00N 54°37' W 005°03'2 3.7
2017-May-16 20:30N 54°38' W 005°06'2 3.8
2017-May-16 20:00N 54°39' W 005°09'2 3.8
2017-May-16 19:30N 54°39' W 005°12'2 4.2
2017-May-16 19:00N 54°40' W 005°15'2 5.0
2017-May-16 18:30N 54°41' W 005°19'3 5.1
2017-May-16 18:00N 54°42' W 005°24'2 4.9
2017-May-16 17:30N 54°43' W 005°27'2 4.4
2017-May-16 17:00N 54°43' W 005°31'2 4.2
2017-May-16 16:30N 54°43' W 005°34'2 4.3
2017-May-16 16:00N 54°42' W 005°38'0 1.0
2017-May-16 15:30N 54°42' W 005°39'0 0.1
2017-May-16 15:00N 54°42' W 005°39'0 0.0
2017-May-16 14:00N 54°42' W 005°39'4 7.0
2017-May-16 13:30N 54°41' W 005°45'4 7.8
2017-May-16 13:00N 54°40' W 005°51'  

Dump ship's entire track history